createdAt,value
2018-01-25T00:00:48.491Z,88.56
2018-01-25T00:01:48.482Z,88.65
2018-01-25T00:02:48.460Z,88.56
2018-01-25T00:03:48.440Z,88.27
2018-01-25T00:04:48.430Z,88.75
2018-01-25T00:05:48.403Z,88.56
2018-01-25T00:06:48.402Z,89.22
2018-01-25T00:07:48.370Z,89.41
2018-01-25T00:08:48.370Z,89.13
2018-01-25T00:09:48.342Z,88.46
2018-01-25T00:10:48.335Z,88.37
2018-01-25T00:11:48.325Z,88.37
2018-01-25T00:12:48.284Z,88.46
2018-01-25T00:13:48.265Z,88.75
2018-01-25T00:14:48.253Z,88.46
2018-01-25T00:15:48.237Z,89.37
2018-01-25T00:16:48.221Z,89.27
2018-01-25T00:17:48.208Z,89.13
2018-01-25T00:18:48.191Z,87.89
2018-01-25T00:19:48.163Z,88.46
2018-01-25T00:20:48.147Z,88.75
2018-01-25T00:21:48.141Z,88.46
2018-01-25T00:22:48.123Z,88.37
2018-01-25T00:23:48.099Z,88.56
2018-01-25T00:24:48.086Z,87.13
2018-01-25T00:25:48.066Z,87.70
2018-01-25T00:26:48.059Z,88.08
2018-01-25T00:27:48.028Z,88.18
2018-01-25T00:28:48.024Z,88.93
2018-01-25T00:29:48.005Z,89.18
2018-01-25T00:30:47.996Z,89.47
2018-01-25T00:31:47.973Z,89.56
2018-01-25T00:32:47.963Z,89.84
2018-01-25T00:33:47.937Z,88.60
2018-01-25T00:34:47.929Z,89.27
2018-01-25T00:35:47.900Z,89.94
2018-01-25T00:36:47.899Z,90.03
2018-01-25T00:37:47.865Z,89.47
2018-01-25T00:38:47.872Z,90.03
2018-01-25T00:39:47.846Z,89.94
2018-01-25T00:40:47.837Z,90.32
2018-01-25T00:41:47.801Z,90.61
2018-01-25T00:42:47.794Z,90.32
2018-01-25T00:43:47.785Z,90.61
2018-01-25T00:44:47.757Z,89.94
2018-01-25T00:45:47.750Z,90.22
2018-01-25T00:46:47.712Z,89.94
2018-01-25T00:47:47.718Z,89.84
2018-01-25T00:48:47.672Z,90.03
2018-01-25T00:49:47.663Z,90.03
2018-01-25T00:50:47.666Z,89.37
2018-01-25T00:51:47.631Z,89.84
2018-01-25T00:52:47.618Z,89.94
2018-01-25T00:53:47.597Z,90.03
2018-01-25T00:54:47.586Z,89.94
2018-01-25T00:55:47.557Z,90.03
2018-01-25T00:56:47.545Z,89.75
2018-01-25T00:57:47.519Z,89.18
2018-01-25T00:58:47.513Z,89.27
2018-01-25T00:59:47.487Z,88.89
2018-01-25T01:00:47.476Z,89.18
2018-01-25T01:01:47.453Z,89.27
2018-01-25T01:02:47.444Z,89.27
2018-01-25T01:03:47.428Z,89.08
2018-01-25T01:04:47.405Z,89.27
2018-01-25T01:05:47.392Z,88.99
2018-01-25T01:06:47.370Z,89.18
2018-01-25T01:07:47.358Z,89.18
2018-01-25T01:08:47.345Z,89.65
2018-01-25T01:09:47.329Z,89.27
2018-01-25T01:10:47.303Z,89.37
2018-01-25T01:11:47.294Z,89.37
2018-01-25T01:12:47.268Z,89.56
2018-01-25T01:13:47.281Z,89.56
2018-01-25T01:14:47.245Z,89.84
2018-01-25T01:15:47.233Z,89.65
2018-01-25T01:16:47.204Z,89.37
2018-01-25T01:17:47.191Z,89.75
2018-01-25T01:18:47.169Z,89.94
2018-01-25T01:19:47.149Z,89.56
2018-01-25T01:20:47.130Z,89.94
2018-01-25T01:21:47.127Z,89.27
2018-01-25T01:22:47.124Z,89.27
2018-01-25T01:23:47.082Z,89.18
2018-01-25T01:24:47.063Z,89.41
2018-01-25T01:25:47.066Z,88.56
2018-01-25T01:26:47.040Z,89.13
2018-01-25T01:27:47.047Z,88.84
2018-01-25T01:28:47.005Z,88.27
2018-01-25T01:29:46.986Z,88.46
2018-01-25T01:30:46.980Z,88.37
2018-01-25T01:31:46.944Z,88.84
2018-01-25T01:32:46.928Z,88.46
2018-01-25T01:33:46.915Z,88.51
2018-01-25T01:34:46.892Z,88.37
2018-01-25T01:35:46.870Z,88.56
2018-01-25T01:36:46.857Z,88.32
2018-01-25T01:37:46.844Z,88.70
2018-01-25T01:38:46.838Z,89.08
2018-01-25T01:39:46.818Z,89.94
2018-01-25T01:40:46.812Z,89.08
2018-01-25T01:41:46.780Z,89.27
2018-01-25T01:42:46.777Z,89.84
2018-01-25T01:43:46.739Z,89.75
2018-01-25T01:44:46.736Z,89.27
2018-01-25T01:45:46.703Z,89.08
2018-01-25T01:46:46.694Z,88.99
2018-01-25T01:47:46.676Z,88.56
2018-01-25T01:48:46.658Z,88.46
2018-01-25T01:49:46.642Z,88.37
2018-01-25T01:50:46.624Z,88.27
2018-01-25T01:51:46.609Z,88.37
2018-01-25T01:52:46.593Z,87.98
2018-01-25T01:53:46.590Z,88.37
2018-01-25T01:54:46.545Z,87.79
2018-01-25T01:55:46.548Z,88.75
2018-01-25T01:56:46.526Z,88.08
2018-01-25T01:57:46.507Z,88.37
2018-01-25T01:58:46.488Z,88.84
2018-01-25T01:59:46.467Z,88.56
2018-01-25T02:00:46.475Z,88.79
2018-01-25T02:01:46.457Z,88.37
2018-01-25T02:02:46.443Z,88.56
2018-01-25T02:03:46.408Z,88.08
2018-01-25T02:04:46.389Z,87.98
2018-01-25T02:05:46.382Z,87.98
2018-01-25T02:06:46.372Z,87.70
2018-01-25T02:07:46.330Z,87.60
2018-01-25T02:08:46.309Z,88.65
2018-01-25T02:09:46.299Z,88.56
2018-01-25T02:10:46.312Z,88.37
2018-01-25T02:11:46.267Z,88.08
2018-01-25T02:12:46.251Z,87.98
2018-01-25T02:13:46.232Z,89.13
2018-01-25T02:14:46.238Z,88.70
2018-01-25T02:15:46.204Z,88.70
2018-01-25T02:16:46.181Z,88.46
2018-01-25T02:17:46.165Z,89.08
2018-01-25T02:18:46.146Z,88.89
2018-01-25T02:19:46.136Z,88.70
2018-01-25T02:20:46.124Z,89.27
2018-01-25T02:21:46.104Z,89.37
2018-01-25T02:22:46.092Z,89.65
2018-01-25T02:23:46.060Z,89.27
2018-01-25T02:24:46.070Z,88.93
2018-01-25T02:25:46.054Z,88.65
2018-01-25T02:26:46.028Z,88.32
2018-01-25T02:27:45.993Z,88.51
2018-01-25T02:28:45.980Z,88.99
2018-01-25T02:29:46.021Z,89.56
2018-01-25T02:30:45.964Z,89.94
2018-01-25T02:31:45.926Z,90.32
2018-01-25T02:32:45.923Z,90.22
2018-01-25T02:33:45.904Z,90.51
2018-01-25T02:34:45.890Z,90.32
2018-01-25T02:35:45.859Z,90.22
2018-01-25T02:36:45.860Z,90.22
2018-01-25T02:37:45.825Z,89.94
2018-01-25T02:38:45.825Z,88.93
2018-01-25T02:39:45.792Z,88.56
2018-01-25T02:40:45.777Z,88.18
2018-01-25T02:41:45.762Z,88.18
2018-01-25T02:42:45.735Z,89.32
2018-01-25T02:43:45.719Z,88.70
2018-01-25T02:44:45.699Z,88.65
2018-01-25T02:45:45.687Z,88.37
2018-01-25T02:46:45.672Z,88.08
2018-01-25T02:47:45.647Z,88.56
2018-01-25T02:48:45.635Z,88.37
2018-01-25T02:49:45.618Z,88.08
2018-01-25T02:50:45.625Z,88.27
2018-01-25T02:51:45.586Z,89.41
2018-01-25T02:52:45.567Z,88.89
2018-01-25T02:53:45.552Z,89.03
2018-01-25T02:54:45.541Z,88.79
2018-01-25T02:55:45.522Z,88.99
2018-01-25T02:56:45.503Z,89.08
2018-01-25T02:57:45.481Z,88.56
2018-01-25T02:58:45.469Z,88.93
2018-01-25T02:59:45.476Z,88.27
2018-01-25T03:00:45.459Z,89.65
2018-01-25T03:01:45.421Z,89.56
2018-01-25T03:02:45.399Z,88.89
2018-01-25T03:03:45.380Z,88.99
2018-01-25T03:04:45.367Z,88.70
2018-01-25T03:05:45.352Z,89.08
2018-01-25T03:06:45.338Z,88.93
2018-01-25T03:07:45.322Z,89.03
2018-01-25T03:08:45.297Z,89.03
2018-01-25T03:09:45.280Z,89.32
2018-01-25T03:10:45.287Z,89.51
2018-01-25T03:11:45.241Z,89.65
2018-01-25T03:12:45.232Z,89.18
2018-01-25T03:13:45.216Z,89.51
2018-01-25T03:14:45.203Z,89.41
2018-01-25T03:15:45.177Z,89.13
2018-01-25T03:16:45.157Z,88.75
2018-01-25T03:17:45.145Z,89.03
2018-01-25T03:18:45.129Z,88.46
2018-01-25T03:19:45.116Z,89.13
2018-01-25T03:20:45.097Z,89.13
2018-01-25T03:21:45.071Z,88.65
2018-01-25T03:22:45.064Z,88.37
2018-01-25T03:23:45.067Z,88.65
2018-01-25T03:24:45.029Z,88.75
2018-01-25T03:25:45.013Z,88.65
2018-01-25T03:26:44.997Z,88.37
2018-01-25T03:27:44.980Z,88.46
2018-01-25T03:28:44.959Z,88.27
2018-01-25T03:29:44.942Z,87.98
2018-01-25T03:30:44.930Z,88.37
2018-01-25T03:31:44.910Z,89.22
2018-01-25T03:32:44.891Z,88.46
2018-01-25T03:33:44.881Z,89.22
2018-01-25T03:34:44.862Z,88.93
2018-01-25T03:35:44.855Z,88.08
2018-01-25T03:36:44.826Z,87.98
2018-01-25T03:37:44.814Z,87.70
2018-01-25T03:38:44.820Z,87.84
2018-01-25T03:39:44.772Z,87.70
2018-01-25T03:40:44.772Z,87.89
2018-01-25T03:41:44.751Z,87.93
2018-01-25T03:42:44.727Z,87.74
2018-01-25T03:43:44.727Z,88.03
2018-01-25T03:44:44.689Z,87.84
2018-01-25T03:45:44.689Z,87.74
2018-01-25T03:46:44.660Z,87.74
2018-01-25T03:47:44.663Z,88.03
2018-01-25T03:48:44.631Z,87.74
2018-01-25T03:49:44.612Z,87.84
2018-01-25T03:50:44.602Z,87.84
2018-01-25T03:51:44.582Z,87.84
2018-01-25T03:52:44.564Z,87.46
2018-01-25T03:53:44.548Z,87.27
2018-01-25T03:54:44.529Z,87.74
2018-01-25T03:55:44.545Z,87.27
2018-01-25T03:56:44.496Z,86.98
2018-01-25T03:57:44.538Z,87.27
2018-01-25T03:58:44.467Z,86.12
2018-01-25T03:59:44.458Z,86.88
2018-01-25T04:00:44.438Z,86.22
2018-01-25T04:01:44.419Z,86.51
2018-01-25T04:02:44.410Z,86.88
2018-01-25T04:03:44.381Z,87.17
2018-01-25T04:04:44.380Z,87.65
2018-01-25T04:05:44.349Z,87.17
2018-01-25T04:06:44.342Z,86.98
2018-01-25T04:07:44.330Z,86.88
2018-01-25T04:08:44.310Z,86.69
2018-01-25T04:09:44.285Z,86.98
2018-01-25T04:10:44.276Z,86.41
2018-01-25T04:11:44.273Z,86.22
2018-01-25T04:12:44.242Z,86.12
2018-01-25T04:13:44.224Z,86.45
2018-01-25T04:14:44.205Z,86.03
2018-01-25T04:15:44.209Z,86.79
2018-01-25T04:16:44.178Z,87.17
2018-01-25T04:17:44.155Z,86.88
2018-01-25T04:18:44.143Z,87.84
2018-01-25T04:19:44.127Z,86.98
2018-01-25T04:20:44.107Z,87.07
2018-01-25T04:21:44.104Z,87.36
2018-01-25T04:22:44.088Z,87.55
2018-01-25T04:23:44.057Z,87.46
2018-01-25T04:24:44.066Z,87.27
2018-01-25T04:25:44.037Z,86.41
2018-01-25T04:26:44.012Z,86.60
2018-01-25T04:27:43.998Z,86.60
2018-01-25T04:28:43.986Z,86.79
2018-01-25T04:29:43.973Z,86.41
2018-01-25T04:30:43.951Z,86.41
2018-01-25T04:31:43.935Z,86.79
2018-01-25T04:32:43.912Z,86.98
2018-01-25T04:33:43.903Z,86.69
2018-01-25T04:34:43.884Z,87.07
2018-01-25T04:35:43.868Z,87.46
2018-01-25T04:36:43.868Z,86.88
2018-01-25T04:37:43.845Z,86.41
2018-01-25T04:38:43.821Z,86.60
2018-01-25T04:39:43.795Z,85.93
2018-01-25T04:40:43.792Z,86.32
2018-01-25T04:41:43.771Z,86.07
2018-01-25T04:42:43.759Z,86.16
2018-01-25T04:43:43.740Z,86.55
2018-01-25T04:44:43.724Z,85.12
2018-01-25T04:45:43.701Z,85.31
2018-01-25T04:46:43.692Z,85.21
2018-01-25T04:47:43.677Z,85.50
2018-01-25T04:48:43.658Z,85.21
2018-01-25T04:49:43.654Z,84.64
2018-01-25T04:50:43.625Z,85.41
2018-01-25T04:51:43.641Z,85.02
2018-01-25T04:52:43.597Z,85.21
2018-01-25T04:53:43.584Z,85.41
2018-01-25T04:54:43.559Z,84.83
2018-01-25T04:55:43.542Z,84.36
2018-01-25T04:56:43.533Z,84.16
2018-01-25T04:57:43.514Z,84.45
2018-01-25T04:58:43.494Z,84.92
2018-01-25T04:59:43.482Z,85.31
2018-01-25T05:00:43.466Z,84.36
2018-01-25T05:01:43.463Z,84.07
2018-01-25T05:02:43.444Z,85.12
2018-01-25T05:03:43.418Z,85.02
2018-01-25T05:04:43.419Z,85.31
2018-01-25T05:05:43.383Z,85.31
2018-01-25T05:06:43.377Z,85.02
2018-01-25T05:07:43.377Z,84.83
2018-01-25T05:08:43.342Z,85.31
2018-01-25T05:09:43.329Z,85.97
2018-01-25T05:10:43.304Z,84.92
2018-01-25T05:11:43.288Z,85.60
2018-01-25T05:12:43.273Z,85.31
2018-01-25T05:13:43.254Z,85.21
2018-01-25T05:14:43.247Z,85.78
2018-01-25T05:15:43.228Z,85.88
2018-01-25T05:16:43.222Z,86.16
2018-01-25T05:17:43.199Z,86.26
2018-01-25T05:18:43.177Z,86.79
2018-01-25T05:19:43.171Z,85.88
2018-01-25T05:20:43.155Z,85.60
2018-01-25T05:21:43.129Z,85.21
2018-01-25T05:22:43.116Z,85.21
2018-01-25T05:23:43.113Z,85.21
2018-01-25T05:24:43.104Z,85.02
2018-01-25T05:25:43.084Z,86.07
2018-01-25T05:26:43.060Z,86.26
2018-01-25T05:27:43.041Z,87.50
2018-01-25T05:28:43.028Z,87.98
2018-01-25T05:29:42.999Z,87.69
2018-01-25T05:30:43.005Z,88.45
2018-01-25T05:31:42.986Z,89.03
2018-01-25T05:32:42.957Z,90.08
2018-01-25T05:33:42.945Z,91.46
2018-01-25T05:34:42.929Z,90.74
2018-01-25T05:35:42.909Z,92.13
2018-01-25T05:36:42.925Z,93.46
2018-01-25T05:37:42.877Z,94.13
2018-01-25T05:38:42.869Z,93.55
2018-01-25T05:39:42.842Z,94.13
2018-01-25T05:40:42.832Z,94.60
2018-01-25T05:41:42.822Z,94.13
2018-01-25T05:42:42.797Z,94.51
2018-01-25T05:43:42.775Z,94.13
2018-01-25T05:44:42.765Z,94.51
2018-01-25T05:45:42.752Z,94.60
2018-01-25T05:46:42.733Z,94.89
2018-01-25T05:47:42.717Z,94.03
2018-01-25T05:48:42.694Z,94.89
2018-01-25T05:49:42.685Z,95.17
2018-01-25T05:50:42.664Z,94.60
2018-01-25T05:51:42.654Z,94.41
2018-01-25T05:52:42.626Z,94.79
2018-01-25T05:53:42.616Z,94.70
2018-01-25T05:54:42.600Z,96.17
2018-01-25T05:55:42.585Z,95.32
2018-01-25T05:56:42.568Z,95.79
2018-01-25T05:57:42.546Z,95.41
2018-01-25T05:58:42.537Z,95.60
2018-01-25T05:59:42.514Z,95.12
2018-01-25T06:00:42.501Z,95.22
2018-01-25T06:01:42.478Z,94.74
2018-01-25T06:02:42.462Z,94.46
2018-01-25T06:03:42.456Z,94.74
2018-01-25T06:04:42.440Z,94.56
2018-01-25T06:05:42.414Z,95.32
2018-01-25T06:06:42.395Z,94.84
2018-01-25T06:07:42.402Z,94.27
2018-01-25T06:08:42.370Z,93.98
2018-01-25T06:09:42.347Z,94.17
2018-01-25T06:10:42.331Z,94.17
2018-01-25T06:11:42.309Z,93.32
2018-01-25T06:12:42.300Z,95.32
2018-01-25T06:13:42.280Z,94.56
2018-01-25T06:14:42.261Z,93.51
2018-01-25T06:15:42.250Z,95.22
2018-01-25T06:16:42.245Z,93.89
2018-01-25T06:17:42.213Z,93.41
2018-01-25T06:18:42.190Z,94.27
2018-01-25T06:19:42.181Z,93.98
2018-01-25T06:20:42.171Z,93.32
2018-01-25T06:21:42.161Z,94.27
2018-01-25T06:22:42.133Z,93.32
2018-01-25T06:23:42.113Z,93.41
2018-01-25T06:24:42.098Z,93.60
2018-01-25T06:25:42.082Z,93.74
2018-01-25T06:26:42.113Z,93.55
2018-01-25T06:27:42.051Z,92.69
2018-01-25T06:28:42.033Z,93.46
2018-01-25T06:29:42.014Z,92.65
2018-01-25T06:30:42.014Z,92.84
2018-01-25T06:31:41.978Z,92.74
2018-01-25T06:32:41.966Z,92.89
2018-01-25T06:33:41.946Z,92.60
2018-01-25T06:34:41.929Z,93.17
2018-01-25T06:35:41.908Z,91.99
2018-01-25T06:36:41.892Z,92.41
2018-01-25T06:37:41.882Z,92.79
2018-01-25T06:38:41.861Z,93.17
2018-01-25T06:39:41.846Z,92.69
2018-01-25T06:40:41.830Z,93.41
2018-01-25T06:41:41.817Z,94.08
2018-01-25T06:42:41.797Z,94.08
2018-01-25T06:43:41.772Z,93.79
2018-01-25T06:44:41.756Z,93.60
2018-01-25T06:45:41.746Z,93.60
2018-01-25T06:46:41.732Z,94.17
2018-01-25T06:47:41.724Z,94.08
2018-01-25T06:48:41.709Z,94.46
2018-01-25T06:49:41.679Z,94.46
2018-01-25T06:50:41.667Z,94.27
2018-01-25T06:51:41.648Z,93.79
2018-01-25T06:52:41.623Z,94.56
2018-01-25T06:53:41.613Z,95.22
2018-01-25T06:54:41.639Z,95.41
2018-01-25T06:55:41.583Z,95.03
2018-01-25T06:56:41.570Z,95.41
2018-01-25T06:57:41.542Z,95.41
2018-01-25T06:58:41.536Z,95.79
2018-01-25T06:59:41.532Z,95.98
2018-01-25T07:00:41.504Z,95.70
2018-01-25T07:01:41.480Z,95.70
2018-01-25T07:02:41.470Z,95.70
2018-01-25T07:03:41.455Z,95.41
2018-01-25T07:04:41.437Z,95.41
2018-01-25T07:05:41.411Z,96.17
2018-01-25T07:06:41.404Z,95.60
2018-01-25T07:07:41.376Z,95.12
2018-01-25T07:08:41.354Z,95.12
2018-01-25T07:09:41.353Z,94.56
2018-01-25T07:10:41.331Z,94.56
2018-01-25T07:11:41.311Z,93.70
2018-01-25T07:12:41.293Z,94.27
2018-01-25T07:13:41.278Z,94.37
2018-01-25T07:14:41.265Z,95.32
2018-01-25T07:15:41.239Z,95.22
2018-01-25T07:16:41.236Z,95.03
2018-01-25T07:17:41.224Z,95.12
2018-01-25T07:18:41.201Z,94.46
2018-01-25T07:19:41.181Z,94.37
2018-01-25T07:20:41.159Z,93.98
2018-01-25T07:21:41.144Z,93.41
2018-01-25T07:22:41.124Z,92.74
2018-01-25T07:23:41.105Z,92.98
2018-01-25T07:24:41.105Z,93.41
2018-01-25T07:25:41.077Z,92.74
2018-01-25T07:26:41.057Z,93.27
2018-01-25T07:27:41.041Z,92.65
2018-01-25T07:28:41.023Z,92.69
2018-01-25T07:29:41.013Z,92.55
2018-01-25T07:30:40.990Z,92.74
2018-01-25T07:31:40.974Z,93.03
2018-01-25T07:32:40.955Z,93.22
2018-01-25T07:33:40.936Z,93.22
2018-01-25T07:34:40.936Z,92.65
2018-01-25T07:35:40.907Z,92.94
2018-01-25T07:36:40.888Z,93.22
2018-01-25T07:37:40.884Z,93.60
2018-01-25T07:38:40.855Z,92.46
2018-01-25T07:39:40.839Z,92.74
2018-01-25T07:40:40.819Z,94.08
2018-01-25T07:41:40.807Z,93.89
2018-01-25T07:42:40.800Z,93.03
2018-01-25T07:43:40.774Z,93.32
2018-01-25T07:44:40.753Z,92.84
2018-01-25T07:45:40.749Z,93.60
2018-01-25T07:46:40.724Z,92.65
2018-01-25T07:47:40.710Z,92.65
2018-01-25T07:48:40.711Z,93.41
2018-01-25T07:49:40.676Z,93.89
2018-01-25T07:50:40.673Z,93.51
2018-01-25T07:51:40.648Z,94.17
2018-01-25T07:52:40.633Z,93.60
2018-01-25T07:53:40.606Z,92.84
2018-01-25T07:54:40.597Z,92.84
2018-01-25T07:55:40.577Z,92.84
2018-01-25T07:56:40.558Z,93.70
2018-01-25T07:57:40.533Z,93.22
2018-01-25T07:58:40.536Z,93.41
2018-01-25T07:59:40.504Z,92.74
2018-01-25T08:00:40.528Z,93.03
2018-01-25T08:01:40.494Z,92.74
2018-01-25T08:02:40.455Z,93.32
2018-01-25T08:03:40.453Z,92.74
2018-01-25T08:04:40.436Z,92.84
2018-01-25T08:05:40.407Z,92.22
2018-01-25T08:06:40.397Z,92.32
2018-01-25T08:07:40.378Z,92.69
2018-01-25T08:08:40.360Z,92.79
2018-01-25T08:09:40.361Z,92.89
2018-01-25T08:10:40.330Z,93.03
2018-01-25T08:11:40.311Z,91.94
2018-01-25T08:12:40.299Z,93.08
2018-01-25T08:13:40.289Z,93.03
2018-01-25T08:14:40.260Z,93.41
2018-01-25T08:15:40.249Z,92.84
2018-01-25T08:16:40.230Z,92.50
2018-01-25T08:17:40.204Z,92.55
2018-01-25T08:18:40.195Z,92.98
2018-01-25T08:19:40.182Z,92.79
2018-01-25T08:20:40.162Z,93.08
2018-01-25T08:21:40.153Z,93.60
2018-01-25T08:22:40.128Z,94.08
2018-01-25T08:23:40.121Z,93.70
2018-01-25T08:24:40.089Z,94.08
2018-01-25T08:25:40.076Z,94.65
2018-01-25T08:26:40.065Z,95.12
2018-01-25T08:27:40.057Z,95.22
2018-01-25T08:28:40.035Z,95.12
2018-01-25T08:29:40.009Z,95.22
2018-01-25T08:30:40.017Z,95.03
2018-01-25T08:31:39.986Z,95.51
2018-01-25T08:32:39.970Z,95.22
2018-01-25T08:33:39.952Z,95.98
2018-01-25T08:34:39.929Z,95.79
2018-01-25T08:35:39.919Z,95.89
2018-01-25T08:36:39.905Z,95.51
2018-01-25T08:37:39.881Z,96.17
2018-01-25T08:38:39.874Z,95.70
2018-01-25T08:39:39.852Z,96.65
2018-01-25T08:40:39.836Z,97.13
2018-01-25T08:41:39.826Z,97.31
2018-01-25T08:42:39.814Z,96.17
2018-01-25T08:43:39.788Z,96.17
2018-01-25T08:44:39.765Z,96.08
2018-01-25T08:45:39.757Z,95.79
2018-01-25T08:46:39.731Z,96.08
2018-01-25T08:47:39.720Z,96.65
2018-01-25T08:48:39.735Z,97.41
2018-01-25T08:49:39.682Z,97.22
2018-01-25T08:50:39.665Z,97.79
2018-01-25T08:51:39.652Z,97.99
2018-01-25T08:52:39.637Z,98.74
2018-01-25T08:53:39.620Z,99.22
2018-01-25T08:54:39.608Z,99.32
2018-01-25T08:55:39.586Z,99.03
2018-01-25T08:56:39.573Z,99.89
2018-01-25T08:57:39.553Z,99.89
2018-01-25T08:58:39.547Z,99.99
2018-01-25T08:59:39.538Z,99.99
2018-01-25T09:00:39.515Z,99.99
2018-01-25T09:01:39.493Z,99.98
2018-01-25T09:02:39.472Z,99.99
2018-01-25T09:03:39.453Z,99.99
2018-01-25T09:04:39.434Z,99.99
2018-01-25T09:05:39.421Z,99.99
2018-01-25T09:06:39.408Z,99.99
2018-01-25T09:07:39.386Z,99.99
2018-01-25T09:08:39.367Z,99.99
2018-01-25T09:09:39.363Z,99.99
2018-01-25T09:10:39.331Z,99.99
2018-01-25T09:11:39.337Z,99.99
2018-01-25T09:12:39.303Z,99.99
2018-01-25T09:13:39.327Z,99.99
2018-01-25T09:14:39.271Z,99.99
2018-01-25T09:15:39.252Z,99.99
2018-01-25T09:16:39.242Z,99.99
2018-01-25T09:17:39.242Z,99.99
2018-01-25T09:18:39.207Z,99.99
2018-01-25T09:19:39.184Z,99.99
2018-01-25T09:20:39.168Z,99.99
2018-01-25T09:21:39.159Z,99.99
2018-01-25T09:22:39.136Z,99.99
2018-01-25T09:23:39.117Z,99.99
2018-01-25T09:24:39.097Z,99.99
2018-01-25T09:25:39.098Z,99.99
2018-01-25T09:26:39.063Z,99.99
2018-01-25T09:27:39.060Z,99.99
2018-01-25T09:28:39.025Z,99.99
2018-01-25T09:29:39.018Z,99.99
2018-01-25T09:30:38.997Z,99.99
2018-01-25T09:31:38.980Z,99.99
2018-01-25T09:32:38.963Z,99.99
2018-01-25T09:33:38.948Z,99.99
2018-01-25T09:34:38.938Z,99.99
2018-01-25T09:35:38.918Z,99.99
2018-01-25T09:36:38.896Z,99.99
2018-01-25T09:37:38.884Z,99.99
2018-01-25T09:38:38.869Z,99.99
2018-01-25T09:39:38.852Z,99.99
2018-01-25T09:40:38.830Z,99.99
2018-01-25T09:41:38.825Z,99.99
2018-01-25T09:42:38.804Z,99.99
2018-01-25T09:43:38.782Z,99.99
2018-01-25T09:44:38.760Z,99.99
2018-01-25T09:45:38.750Z,99.99
2018-01-25T09:46:38.733Z,99.99
2018-01-25T09:47:38.718Z,99.99
2018-01-25T09:48:38.700Z,99.99
2018-01-25T09:49:38.678Z,99.99
2018-01-25T09:50:38.661Z,99.99
2018-01-25T09:51:38.649Z,99.99
2018-01-25T09:52:38.627Z,99.99
2018-01-25T09:53:38.616Z,99.99
2018-01-25T09:54:38.597Z,99.99
2018-01-25T09:55:38.585Z,99.99
2018-01-25T09:56:38.559Z,99.99
2018-01-25T09:57:38.546Z,99.99
2018-01-25T09:58:38.530Z,99.99
2018-01-25T09:59:38.521Z,99.99
2018-01-25T10:00:38.492Z,99.99
2018-01-25T10:01:38.482Z,99.99
2018-01-25T10:02:38.461Z,99.99
2018-01-25T10:03:38.436Z,99.99
2018-01-25T10:04:38.439Z,99.99
2018-01-25T10:05:38.410Z,99.99
2018-01-25T10:06:38.391Z,99.99
2018-01-25T10:07:38.385Z,99.99
2018-01-25T10:08:38.363Z,99.99
2018-01-25T10:09:38.363Z,99.99
2018-01-25T10:10:38.318Z,99.99
2018-01-25T10:11:38.309Z,99.99
2018-01-25T10:12:38.283Z,99.99
2018-01-25T10:13:38.277Z,99.99
2018-01-25T10:14:38.261Z,99.99
2018-01-25T10:15:38.239Z,99.99
2018-01-25T10:16:38.220Z,99.99
2018-01-25T10:17:38.210Z,99.99
2018-01-25T10:18:38.188Z,99.99
2018-01-25T10:19:38.175Z,99.99
2018-01-25T10:20:38.162Z,99.99
2018-01-25T10:21:38.143Z,99.99
2018-01-25T10:22:38.134Z,99.99
2018-01-25T10:23:38.117Z,99.99
2018-01-25T10:24:38.092Z,99.99
2018-01-25T10:25:38.082Z,99.99
2018-01-25T10:26:38.078Z,99.99
2018-01-25T10:27:38.040Z,99.99
2018-01-25T10:28:38.027Z,99.99
2018-01-25T10:29:38.007Z,99.99
2018-01-25T10:30:37.992Z,99.99
2018-01-25T10:31:37.973Z,99.99
2018-01-25T10:32:37.963Z,99.99
2018-01-25T10:33:37.947Z,99.99
2018-01-25T10:34:37.928Z,99.99
2018-01-25T10:35:37.918Z,99.99
2018-01-25T10:36:37.889Z,99.99
2018-01-25T10:37:37.880Z,99.99
2018-01-25T10:38:37.869Z,99.99
2018-01-25T10:39:37.846Z,99.99
2018-01-25T10:40:37.834Z,99.99
2018-01-25T10:41:37.812Z,99.99
2018-01-25T10:42:37.808Z,99.99
2018-01-25T10:43:37.776Z,99.99
2018-01-25T10:44:37.777Z,99.99
2018-01-25T10:45:37.751Z,99.99
2018-01-25T10:46:37.732Z,99.99
2018-01-25T10:47:37.763Z,99.99
2018-01-25T10:48:37.705Z,99.99
2018-01-25T10:49:37.699Z,99.99
2018-01-25T10:50:37.670Z,99.99
2018-01-25T10:51:37.652Z,99.99
2018-01-25T10:52:37.638Z,99.99
2018-01-25T10:53:37.616Z,99.99
2018-01-25T10:54:37.606Z,99.99
2018-01-25T10:55:37.580Z,99.99
2018-01-25T10:56:37.562Z,99.99
2018-01-25T10:57:37.555Z,99.99
2018-01-25T10:58:37.533Z,99.99
2018-01-25T10:59:37.520Z,99.99
2018-01-25T11:00:37.501Z,99.99
2018-01-25T11:01:37.488Z,99.99
2018-01-25T11:02:37.465Z,99.99
2018-01-25T11:03:37.473Z,99.99
2018-01-25T11:04:37.433Z,99.99
2018-01-25T11:05:37.420Z,99.99
2018-01-25T11:06:37.401Z,99.99
2018-01-25T11:07:37.392Z,99.99
2018-01-25T11:08:37.366Z,99.99
2018-01-25T11:09:37.349Z,99.99
2018-01-25T11:10:37.337Z,99.99
2018-01-25T11:11:37.342Z,99.99
2018-01-25T11:12:37.299Z,99.99
2018-01-25T11:13:37.289Z,99.99
2018-01-25T11:14:37.278Z,99.99
2018-01-25T11:15:37.253Z,99.99
2018-01-25T11:16:37.247Z,99.99
2018-01-25T11:17:37.231Z,99.99
2018-01-25T11:18:37.227Z,99.99
2018-01-25T11:19:37.192Z,99.99
2018-01-25T11:20:37.178Z,99.99
2018-01-25T11:21:37.160Z,99.99
2018-01-25T11:22:37.144Z,99.99
2018-01-25T11:23:37.132Z,99.99
2018-01-25T11:24:37.137Z,99.99
2018-01-25T11:25:37.093Z,99.99
2018-01-25T11:26:37.103Z,99.99
2018-01-25T11:27:37.063Z,99.99
2018-01-25T11:28:37.047Z,99.99
2018-01-25T11:29:37.040Z,99.99
2018-01-25T11:30:37.028Z,99.99
2018-01-25T11:31:36.997Z,99.99
2018-01-25T11:32:36.983Z,99.99
2018-01-25T11:33:36.975Z,99.99
2018-01-25T11:34:36.954Z,99.99
2018-01-25T11:35:36.935Z,99.99
2018-01-25T11:36:36.934Z,99.99
2018-01-25T11:37:36.906Z,99.99
2018-01-25T11:38:36.890Z,99.99
2018-01-25T11:39:36.873Z,99.99
2018-01-25T11:40:36.855Z,99.99
2018-01-25T11:41:36.836Z,99.99
2018-01-25T11:42:36.823Z,99.99
2018-01-25T11:43:36.811Z,99.99
2018-01-25T11:44:36.786Z,99.99
2018-01-25T11:45:36.785Z,99.99
2018-01-25T11:46:36.762Z,99.99
2018-01-25T11:47:36.737Z,99.99
2018-01-25T11:48:36.735Z,99.99
2018-01-25T11:49:36.711Z,99.99
2018-01-25T11:50:36.728Z,99.99
2018-01-25T11:51:36.685Z,99.99
2018-01-25T11:52:36.657Z,99.99
2018-01-25T11:53:36.644Z,99.99
2018-01-25T11:54:36.647Z,99.99
2018-01-25T11:55:36.609Z,99.99
2018-01-25T11:56:36.596Z,99.99
2018-01-25T11:57:36.580Z,99.99
2018-01-25T11:58:36.573Z,99.99
2018-01-25T11:59:36.548Z,99.99
2018-01-25T12:00:36.532Z,99.99
2018-01-25T12:01:36.515Z,99.99
2018-01-25T12:02:36.497Z,99.99
2018-01-25T12:03:36.484Z,99.99
2018-01-25T12:04:36.469Z,99.99
2018-01-25T12:05:36.452Z,99.99
2018-01-25T12:06:36.433Z,99.99
2018-01-25T12:07:36.414Z,99.99
2018-01-25T12:08:36.395Z,99.99
2018-01-25T12:09:36.387Z,99.99
2018-01-25T12:10:36.363Z,99.99
2018-01-25T12:11:36.354Z,99.99
2018-01-25T12:12:36.490Z,99.99
2018-01-25T12:13:36.318Z,99.99
2018-01-25T12:14:36.300Z,99.99
2018-01-25T12:15:36.287Z,99.99
2018-01-25T12:16:36.269Z,99.99
2018-01-25T12:17:36.255Z,99.99
2018-01-25T12:18:36.236Z,99.99
2018-01-25T12:19:36.219Z,99.99
2018-01-25T12:20:36.206Z,99.99
2018-01-25T12:21:36.185Z,99.99
2018-01-25T12:22:36.169Z,99.99
2018-01-25T12:23:36.157Z,99.99
2018-01-25T12:24:36.141Z,99.99
2018-01-25T12:25:36.127Z,99.99
2018-01-25T12:26:36.108Z,99.99
2018-01-25T12:27:36.089Z,99.99
2018-01-25T12:28:36.086Z,99.99
2018-01-25T12:29:36.059Z,99.99
2018-01-25T12:30:36.049Z,99.99
2018-01-25T12:31:36.030Z,99.99
2018-01-25T12:32:36.008Z,99.99
2018-01-25T12:33:35.991Z,99.99
2018-01-25T12:34:35.981Z,99.99
2018-01-25T12:35:35.963Z,99.99
2018-01-25T12:36:35.950Z,99.99
2018-01-25T12:37:35.928Z,99.99
2018-01-25T12:38:35.916Z,99.99
2018-01-25T12:39:35.898Z,99.99
2018-01-25T12:40:35.883Z,99.99
2018-01-25T12:41:35.869Z,99.99
2018-01-25T12:42:35.868Z,99.99
2018-01-25T12:43:35.839Z,99.99
2018-01-25T12:44:35.826Z,99.99
2018-01-25T12:45:35.807Z,99.99
2018-01-25T12:46:35.791Z,99.99
2018-01-25T12:47:35.787Z,99.99
2018-01-25T12:48:35.759Z,99.99
2018-01-25T12:49:35.749Z,99.99
2018-01-25T12:50:35.743Z,99.99
2018-01-25T12:51:35.721Z,99.99
2018-01-25T12:52:35.702Z,99.99